createdAt,value
2023-04-28T00:00:06.857Z,99818.27
2023-04-28T00:02:33.974Z,99821.97
2023-04-28T00:05:01.485Z,99824.29
2023-04-28T00:07:28.400Z,99826.30
2023-04-28T00:09:56.496Z,99827.71
2023-04-28T00:12:23.541Z,99831.20
2023-04-28T00:14:50.625Z,99833.00
2023-04-28T00:17:17.603Z,99832.83
2023-04-28T00:19:44.694Z,99831.05
2023-04-28T00:22:11.781Z,99837.27
2023-04-28T00:24:38.893Z,99841.54
2023-04-28T00:27:05.689Z,99842.08
2023-04-28T00:29:32.880Z,99846.35
2023-04-28T00:31:59.886Z,99843.98
2023-04-28T00:34:27.438Z,99849.33
2023-04-28T00:36:54.552Z,99847.19
2023-04-28T00:39:22.930Z,99844.35
2023-04-28T00:41:49.871Z,99843.67
2023-04-28T00:44:17.397Z,99846.73
2023-04-28T00:46:44.991Z,99848.39
2023-04-28T00:49:11.850Z,99851.79
2023-04-28T00:51:38.681Z,99851.64
2023-04-28T00:54:06.377Z,99854.45
2023-04-28T00:56:33.516Z,99857.61
2023-04-28T00:59:00.438Z,99861.28
2023-04-28T01:01:27.364Z,99862.54
2023-04-28T01:03:54.564Z,99861.00
2023-04-28T01:06:23.325Z,99864.60
2023-04-28T01:08:50.864Z,99863.40
2023-04-28T01:11:17.739Z,99872.63
2023-04-28T01:14:10.662Z,99879.17
2023-04-28T01:16:39.383Z,99884.09
2023-04-28T01:19:13.902Z,99882.29
2023-04-28T01:21:40.950Z,99885.26
2023-04-28T01:24:16.412Z,99891.42
2023-04-28T01:26:44.693Z,99889.30
2023-04-28T01:29:11.968Z,99888.23
2023-04-28T01:31:38.945Z,99891.98
2023-04-28T01:34:06.086Z,99889.37
2023-04-28T01:36:34.252Z,99890.98
2023-04-28T01:39:03.499Z,99895.08
2023-04-28T01:41:30.780Z,99892.95
2023-04-28T01:43:57.661Z,99889.77
2023-04-28T01:46:25.754Z,99889.92
2023-04-28T01:48:52.990Z,99887.72
2023-04-28T01:51:19.780Z,99885.93
2023-04-28T01:53:46.714Z,99888.28
2023-04-28T01:56:13.469Z,99889.72
2023-04-28T01:58:40.813Z,99886.15
2023-04-28T02:01:08.119Z,99879.98
2023-04-28T02:03:35.490Z,99884.47
2023-04-28T02:06:04.334Z,99884.91
2023-04-28T02:08:31.828Z,99886.49
2023-04-28T02:11:01.098Z,99888.36
2023-04-28T02:13:28.636Z,99893.26
2023-04-28T02:15:55.907Z,99889.58
2023-04-28T02:18:22.843Z,99895.64
2023-04-28T02:20:49.904Z,99896.02
2023-04-28T02:23:17.799Z,99897.45
2023-04-28T02:25:44.613Z,99907.20
2023-04-28T02:28:13.690Z,99909.32
2023-04-28T02:30:40.845Z,99912.88
2023-04-28T02:33:07.809Z,99915.17
2023-04-28T02:35:34.653Z,99915.14
2023-04-28T02:38:01.531Z,99912.46
2023-04-28T02:40:28.564Z,99914.63
2023-04-28T02:42:55.390Z,99912.20
2023-04-28T02:45:22.115Z,99914.95
2023-04-28T02:47:48.984Z,99919.10
2023-04-28T02:50:17.151Z,99922.02
2023-04-28T02:52:43.841Z,99921.60
2023-04-28T02:55:11.101Z,99926.95
2023-04-28T02:57:38.008Z,99927.67
2023-04-28T03:00:06.159Z,99929.09
2023-04-28T03:02:39.526Z,99934.62
2023-04-28T03:05:07.062Z,99936.13
2023-04-28T03:07:33.951Z,99937.90
2023-04-28T03:10:00.714Z,99940.58
2023-04-28T03:12:27.579Z,99944.80
2023-04-28T03:14:54.589Z,99949.45
2023-04-28T03:17:21.447Z,99953.92
2023-04-28T03:19:48.699Z,99958.69
2023-04-28T03:22:15.744Z,99968.39
2023-04-28T03:24:42.915Z,99972.26
2023-04-28T03:27:09.832Z,99977.71
2023-04-28T03:29:37.335Z,99975.73
2023-04-28T03:32:04.813Z,99980.55
2023-04-28T03:34:31.562Z,99984.11
2023-04-28T03:36:58.749Z,99984.52
2023-04-28T03:39:28.459Z,99986.48
2023-04-28T03:41:55.611Z,99994.45
2023-04-28T03:44:45.323Z,99996.36
2023-04-28T03:47:12.955Z,99998.08
2023-04-28T03:49:40.430Z,100001.17
2023-04-28T03:52:07.456Z,100002.84
2023-04-28T03:54:34.815Z,99999.83
2023-04-28T03:57:02.269Z,99999.23
2023-04-28T03:59:32.015Z,99998.34
2023-04-28T04:01:59.245Z,99998.52
2023-04-28T04:04:26.458Z,99999.70
2023-04-28T04:06:54.264Z,100007.20
2023-04-28T04:09:21.212Z,100003.35
2023-04-28T04:11:47.823Z,100003.04
2023-04-28T04:14:16.168Z,100006.98
2023-04-28T04:16:43.174Z,100004.64
2023-04-28T04:19:10.221Z,100010.52
2023-04-28T04:21:41.197Z,100005.45
2023-04-28T04:24:08.110Z,100001.19
2023-04-28T04:26:35.380Z,100005.99
2023-04-28T04:29:03.436Z,100001.38
2023-04-28T04:31:32.669Z,100001.67
2023-04-28T04:33:59.840Z,99998.92
2023-04-28T04:36:27.765Z,100001.83
2023-04-28T04:38:54.850Z,100003.54
2023-04-28T04:41:22.572Z,100001.30
2023-04-28T04:43:50.845Z,100000.44
2023-04-28T04:46:17.936Z,99994.98
2023-04-28T04:48:45.055Z,99996.77
2023-04-28T04:51:11.789Z,99994.01
2023-04-28T04:53:39.053Z,99995.86
2023-04-28T04:56:06.082Z,99993.15
2023-04-28T04:58:33.450Z,99991.61
2023-04-28T05:01:18.858Z,99986.27
2023-04-28T05:03:45.930Z,99985.91
2023-04-28T05:06:12.931Z,99993.23
2023-04-28T05:08:45.187Z,99995.78
2023-04-28T05:11:12.047Z,99998.77
2023-04-28T05:13:40.424Z,100000.68
2023-04-28T05:16:07.010Z,99995.45
2023-04-28T05:18:42.308Z,99995.00
2023-04-28T05:21:11.167Z,99996.17
2023-04-28T05:23:38.048Z,99997.45
2023-04-28T05:26:04.995Z,99994.11
2023-04-28T05:28:31.857Z,99991.36
2023-04-28T05:30:58.990Z,99994.55
2023-04-28T05:33:26.480Z,99993.04
2023-04-28T05:35:53.491Z,99991.20
2023-04-28T05:38:23.215Z,99992.98
2023-04-28T05:40:51.187Z,99988.58
2023-04-28T05:43:18.019Z,99984.96
2023-04-28T05:45:45.400Z,99984.14
2023-04-28T05:48:12.308Z,99983.12
2023-04-28T05:50:39.317Z,99980.97
2023-04-28T05:53:07.249Z,99990.66
2023-04-28T05:55:35.821Z,99988.38
2023-04-28T05:58:03.498Z,99989.54
2023-04-28T06:00:31.186Z,99992.58
2023-04-28T06:02:58.873Z,99992.39
2023-04-28T06:05:26.245Z,99995.64
2023-04-28T06:07:55.679Z,99989.27
2023-04-28T06:10:23.026Z,99990.56
2023-04-28T06:12:50.395Z,99988.39
2023-04-28T06:15:17.309Z,99983.91
2023-04-28T06:17:44.358Z,99987.17
2023-04-28T06:20:13.381Z,99984.59
2023-04-28T06:22:40.950Z,99980.52
2023-04-28T06:25:08.606Z,99974.09
2023-04-28T06:27:41.559Z,99978.40
2023-04-28T06:30:09.476Z,99976.79
2023-04-28T06:32:37.000Z,99979.02
2023-04-28T06:35:04.491Z,99979.95
2023-04-28T06:37:31.878Z,99982.09
2023-04-28T06:39:58.783Z,99986.09
2023-04-28T06:42:26.952Z,99981.38
2023-04-28T06:45:04.659Z,99987.02
2023-04-28T06:47:31.441Z,99986.50
2023-04-28T06:50:01.468Z,99991.83
2023-04-28T06:52:38.498Z,99993.46
2023-04-28T06:55:08.890Z,100001.09
2023-04-28T06:57:37.414Z,99994.64
2023-04-28T07:00:05.399Z,99993.84
2023-04-28T07:02:32.841Z,99998.72
2023-04-28T07:05:00.004Z,99997.45
2023-04-28T07:07:26.729Z,100000.08
2023-04-28T07:09:53.657Z,100004.15
2023-04-28T07:12:21.275Z,100004.19
2023-04-28T07:14:48.406Z,100000.14
2023-04-28T07:17:15.455Z,99997.47
2023-04-28T07:19:42.190Z,99995.33
2023-04-28T07:22:08.987Z,100005.42
2023-04-28T07:24:35.963Z,100010.52
2023-04-28T07:27:03.272Z,100012.89
2023-04-28T07:29:33.559Z,100010.77
2023-04-28T07:32:03.014Z,100008.41
2023-04-28T07:34:31.242Z,100021.45
2023-04-28T07:36:58.212Z,100019.23
2023-04-28T07:39:25.032Z,100019.37
2023-04-28T07:41:51.983Z,100019.61
2023-04-28T07:44:19.038Z,100018.17
2023-04-28T07:46:46.008Z,100015.42
2023-04-28T07:49:12.732Z,100020.67
2023-04-28T07:51:39.658Z,100028.63
2023-04-28T07:54:06.682Z,100019.92
2023-04-28T07:56:33.609Z,100019.52
2023-04-28T07:59:00.648Z,100022.56
2023-04-28T08:01:27.548Z,100025.70
2023-04-28T08:03:54.775Z,100022.89
2023-04-28T08:06:21.864Z,100030.54
2023-04-28T08:08:48.802Z,100034.55
2023-04-28T08:11:15.946Z,100037.34
2023-04-28T08:13:43.001Z,100033.27
2023-04-28T08:16:09.657Z,100026.78
2023-04-28T08:18:36.819Z,100020.50
2023-04-28T08:21:04.477Z,100013.63
2023-04-28T08:23:31.499Z,100018.02
2023-04-28T08:25:58.448Z,100023.33
2023-04-28T08:28:25.700Z,100026.08
2023-04-28T08:30:55.030Z,100025.45
2023-04-28T08:33:23.308Z,100022.30
2023-04-28T08:35:50.764Z,100025.89
2023-04-28T08:38:17.722Z,100027.08
2023-04-28T08:40:44.864Z,100033.83
2023-04-28T08:43:13.235Z,100034.63
2023-04-28T08:45:42.361Z,100036.56
2023-04-28T08:48:19.869Z,100032.90
2023-04-28T08:50:52.111Z,100035.23
2023-04-28T08:53:25.238Z,100026.77
2023-04-28T08:55:58.696Z,100034.88
2023-04-28T08:58:26.743Z,100035.52
2023-04-28T09:00:54.106Z,100045.83
2023-04-28T09:03:21.438Z,100038.77
2023-04-28T09:05:48.702Z,100032.56
2023-04-28T09:08:15.448Z,100028.36
2023-04-28T09:10:42.439Z,100026.45
2023-04-28T09:13:09.238Z,100018.91
2023-04-28T09:15:37.715Z,100027.71
2023-04-28T09:18:05.734Z,100029.83
2023-04-28T09:20:33.456Z,100037.09
2023-04-28T09:23:15.796Z,100031.66
2023-04-28T09:26:15.104Z,100031.38
2023-04-28T09:28:41.893Z,100043.59
2023-04-28T09:31:25.359Z,100040.00
2023-04-28T09:33:59.487Z,100042.39
2023-04-28T09:36:29.029Z,100037.14
2023-04-28T09:38:59.736Z,100032.67
2023-04-28T09:41:40.993Z,100025.42
2023-04-28T09:44:18.488Z,100021.02
2023-04-28T09:46:46.112Z,100013.76
2023-04-28T09:49:13.206Z,100019.11
2023-04-28T09:51:40.357Z,100005.64
2023-04-28T09:54:07.142Z,100014.85
2023-04-28T09:56:39.755Z,100027.09
2023-04-28T09:59:06.625Z,100024.50
2023-04-28T10:01:40.352Z,100023.64
2023-04-28T10:04:07.918Z,100022.94
2023-04-28T10:06:38.130Z,100026.09
2023-04-28T10:09:05.230Z,100030.54
2023-04-28T10:11:33.446Z,100034.64
2023-04-28T10:14:00.482Z,100031.61
2023-04-28T10:16:29.956Z,100031.75
2023-04-28T10:18:56.755Z,100019.50
2023-04-28T10:21:24.220Z,100009.77
2023-04-28T10:24:14.669Z,100016.56
2023-04-28T10:27:05.324Z,100025.35
2023-04-28T10:29:33.290Z,100029.83
2023-04-28T10:32:20.638Z,100029.35
2023-04-28T10:34:47.845Z,100020.46
2023-04-28T10:37:15.069Z,100029.86
2023-04-28T10:40:08.983Z,100031.41
2023-04-28T10:43:06.706Z,100025.11
2023-04-28T10:46:00.322Z,100031.91
2023-04-28T10:48:33.189Z,100025.17
2023-04-28T10:51:03.442Z,100016.36
2023-04-28T10:53:46.465Z,100009.13
2023-04-28T10:56:16.241Z,100028.52
2023-04-28T10:58:45.522Z,100029.41
2023-04-28T11:01:21.640Z,100022.55
2023-04-28T11:03:50.902Z,100037.33
2023-04-28T11:06:23.635Z,100039.07
2023-04-28T11:08:50.662Z,100034.92
2023-04-28T11:11:23.337Z,100026.64
2023-04-28T11:13:50.187Z,100029.43
2023-04-28T11:16:27.112Z,100033.13
2023-04-28T11:18:58.374Z,100033.16
2023-04-28T11:23:32.449Z,100027.20
2023-04-28T11:25:59.215Z,100009.55
2023-04-28T11:28:26.268Z,100012.71
2023-04-28T11:31:10.901Z,100002.85
2023-04-28T11:33:38.831Z,100007.21
2023-04-28T11:36:06.942Z,100005.49
2023-04-28T11:38:43.810Z,100005.71
2023-04-28T11:41:10.612Z,99997.73
2023-04-28T11:43:46.948Z,99999.05
2023-04-28T11:46:19.038Z,99992.59
2023-04-28T11:48:46.041Z,99991.31
2023-04-28T11:51:33.128Z,99991.04
2023-04-28T11:54:00.979Z,99999.58
2023-04-28T11:56:28.522Z,99994.34
2023-04-28T11:59:09.020Z,99991.60
2023-04-28T12:02:11.826Z,99992.77
2023-04-28T12:04:40.118Z,99997.96
2023-04-28T12:07:17.408Z,99988.73
2023-04-28T12:09:49.034Z,99984.98
2023-04-28T12:12:40.118Z,99982.48
2023-04-28T12:15:12.664Z,99973.41
2023-04-28T12:17:41.290Z,99969.13
2023-04-28T12:20:09.930Z,99967.71
2023-04-28T12:22:44.507Z,99970.20
2023-04-28T12:25:12.500Z,99972.08
2023-04-28T12:27:40.810Z,99977.02
2023-04-28T12:30:20.238Z,99992.29
2023-04-28T12:32:47.500Z,99994.35
2023-04-28T12:35:14.918Z,99983.46
2023-04-28T12:37:42.449Z,99981.27
2023-04-28T12:40:10.182Z,99979.61
2023-04-28T12:42:37.026Z,99993.06
2023-04-28T12:45:05.400Z,99995.49
2023-04-28T12:47:32.208Z,99987.13
2023-04-28T12:49:58.986Z,99986.77
2023-04-28T12:52:25.859Z,99979.77
2023-04-28T12:54:52.778Z,99983.95
2023-04-28T12:57:19.766Z,99980.98
2023-04-28T12:59:47.710Z,99987.29
2023-04-28T13:02:15.052Z,99984.25
2023-04-28T13:04:51.585Z,99989.30
2023-04-28T13:07:18.702Z,99984.39
2023-04-28T13:09:46.781Z,99986.23
2023-04-28T13:12:14.474Z,99986.93
2023-04-28T13:14:41.943Z,99987.08
2023-04-28T13:17:10.096Z,99987.23
2023-04-28T13:19:37.567Z,99985.94
2023-04-28T13:22:06.289Z,99987.27
2023-04-28T13:24:33.101Z,99982.66
2023-04-28T13:27:00.024Z,99977.02
2023-04-28T13:29:26.976Z,99997.90
2023-04-28T13:31:54.400Z,99997.70
2023-04-28T13:34:21.436Z,99994.72
2023-04-28T13:36:50.773Z,99996.89
2023-04-28T13:39:19.677Z,99996.09
2023-04-28T13:41:46.576Z,99988.90
2023-04-28T13:44:13.480Z,99985.11
2023-04-28T13:46:41.047Z,99983.26
2023-04-28T13:49:11.411Z,99979.65
2023-04-28T13:51:38.787Z,99978.81
2023-04-28T13:54:08.380Z,99977.76
2023-04-28T13:56:36.037Z,99977.29
2023-04-28T13:59:03.082Z,99978.16
2023-04-28T14:01:30.377Z,99979.91
2023-04-28T14:03:57.436Z,99976.03
2023-04-28T14:06:24.641Z,99968.11
2023-04-28T14:08:51.904Z,99973.40
2023-04-28T14:11:19.322Z,99969.40
2023-04-28T14:13:46.296Z,99974.10
2023-04-28T14:16:13.499Z,99970.08
2023-04-28T14:18:40.909Z,99966.60
2023-04-28T14:21:07.917Z,99976.20
2023-04-28T14:23:34.999Z,99971.20
2023-04-28T14:26:01.962Z,99970.21
2023-04-28T14:28:29.129Z,99963.79
2023-04-28T14:30:56.173Z,99967.11
2023-04-28T14:33:23.680Z,99973.93
2023-04-28T14:35:50.527Z,99972.06
2023-04-28T14:38:17.444Z,99970.76
2023-04-28T14:40:44.349Z,99971.98
2023-04-28T14:43:11.517Z,99972.58
2023-04-28T14:45:38.462Z,99972.53
2023-04-28T14:48:07.390Z,99977.27
2023-04-28T14:50:34.610Z,99975.23
2023-04-28T14:53:06.347Z,99983.41
2023-04-28T14:55:33.218Z,99983.67
2023-04-28T14:58:00.451Z,99988.18
2023-04-28T15:00:27.402Z,99983.17
2023-04-28T15:02:54.537Z,99978.52
2023-04-28T15:05:21.496Z,99976.61
2023-04-28T15:07:48.567Z,99979.08
2023-04-28T15:10:15.723Z,99977.11
2023-04-28T15:12:43.867Z,99973.80
2023-04-28T15:15:11.478Z,99974.08
2023-04-28T15:17:40.116Z,99978.98
2023-04-28T15:20:08.036Z,99977.45
2023-04-28T15:22:36.279Z,99980.33
2023-04-28T15:25:03.725Z,99980.12
2023-04-28T15:27:31.700Z,99980.89
2023-04-28T15:29:58.774Z,99981.84
2023-04-28T15:32:26.231Z,99982.76
2023-04-28T15:34:54.217Z,99982.45
2023-04-28T15:37:41.101Z,99980.79
2023-04-28T15:40:11.935Z,99981.71
2023-04-28T15:42:48.215Z,99986.23
2023-04-28T15:45:15.951Z,99989.23
2023-04-28T15:47:43.009Z,99990.20
2023-04-28T15:50:10.464Z,99992.17
2023-04-28T15:52:47.495Z,99990.91
2023-04-28T15:55:18.246Z,99992.20
2023-04-28T15:57:46.102Z,99992.98
2023-04-28T16:00:15.069Z,99993.45
2023-04-28T16:02:43.385Z,99994.77
2023-04-28T16:05:10.789Z,99999.44
2023-04-28T16:07:40.107Z,99993.34
2023-04-28T16:10:08.757Z,100003.21
2023-04-28T16:12:36.388Z,100003.71
2023-04-28T16:15:03.596Z,100003.06
2023-04-28T16:17:30.590Z,100004.13
2023-04-28T16:19:57.478Z,100005.27
2023-04-28T16:22:24.845Z,100008.64
2023-04-28T16:24:53.393Z,100009.73
2023-04-28T16:27:20.475Z,100012.13
2023-04-28T16:29:47.328Z,100011.65
2023-04-28T16:32:14.744Z,100011.33
2023-04-28T16:34:42.170Z,100008.73
2023-04-28T16:37:10.412Z,100012.83
2023-04-28T16:39:37.380Z,100012.73
2023-04-28T16:42:05.015Z,100013.59
2023-04-28T16:44:32.033Z,100010.64
2023-04-28T16:46:59.631Z,100014.06
2023-04-28T16:49:26.600Z,100017.33
2023-04-28T16:52:00.829Z,100019.55
2023-04-28T16:54:28.380Z,100020.80
2023-04-28T16:56:55.701Z,100022.86
2023-04-28T16:59:22.982Z,100024.69
2023-04-28T17:01:49.949Z,100024.95
2023-04-28T17:04:17.504Z,100025.59
2023-04-28T17:06:45.137Z,100029.42
2023-04-28T17:09:12.339Z,100027.56
2023-04-28T17:11:39.337Z,100030.64
2023-04-28T17:14:06.698Z,100032.16
2023-04-28T17:16:34.251Z,100034.95
2023-04-28T17:19:01.380Z,100032.98
2023-04-28T17:21:28.606Z,100036.70
2023-04-28T17:23:59.085Z,100041.80
2023-04-28T17:26:27.082Z,100043.11
2023-04-28T17:28:55.243Z,100041.80
2023-04-28T17:31:22.653Z,100043.29
2023-04-28T17:33:50.971Z,100044.09
2023-04-28T17:36:18.841Z,100040.48
2023-04-28T17:38:45.911Z,100043.57
2023-04-28T17:41:12.933Z,100045.20
2023-04-28T17:43:39.988Z,100048.24
2023-04-28T17:46:07.270Z,100046.50
2023-04-28T17:48:34.522Z,100049.59
2023-04-28T17:51:01.440Z,100050.36
2023-04-28T17:53:28.280Z,100057.89
2023-04-28T17:55:55.247Z,100058.50
2023-04-28T17:58:22.790Z,100058.73
2023-04-28T18:00:49.955Z,100061.83
2023-04-28T18:03:16.841Z,100059.09
2023-04-28T18:05:43.780Z,100063.81
2023-04-28T18:08:10.678Z,100068.49
2023-04-28T18:10:37.518Z,100065.89
2023-04-28T18:13:05.908Z,100066.67
2023-04-28T18:15:32.679Z,100067.21
2023-04-28T18:17:59.851Z,100071.46
2023-04-28T18:20:27.614Z,100069.00
2023-04-28T18:22:56.156Z,100067.10
2023-04-28T18:25:23.391Z,100067.17
2023-04-28T18:27:50.552Z,100067.27
2023-04-28T18:30:17.602Z,100069.81
2023-04-28T18:32:44.549Z,100069.71
2023-04-28T18:35:12.108Z,100068.36
2023-04-28T18:37:38.919Z,100062.94
2023-04-28T18:40:06.257Z,100064.48
2023-04-28T18:42:33.666Z,100062.45
2023-04-28T18:45:00.997Z,100063.07
2023-04-28T18:47:28.259Z,100069.70
2023-04-28T18:49:55.729Z,100072.36
2023-04-28T18:52:22.781Z,100074.66
2023-04-28T18:54:49.827Z,100073.42
2023-04-28T18:57:16.521Z,100072.08
2023-04-28T18:59:43.623Z,100072.67
2023-04-28T19:02:10.848Z,100074.85
2023-04-28T19:04:41.549Z,100075.45
2023-04-28T19:07:08.658Z,100076.39
2023-04-28T19:09:35.722Z,100074.44
2023-04-28T19:12:03.091Z,100071.08
2023-04-28T19:14:30.529Z,100074.27
2023-04-28T19:16:57.307Z,100073.55
2023-04-28T19:19:24.322Z,100073.55
2023-04-28T19:21:52.195Z,100074.45
2023-04-28T19:24:19.137Z,100078.70
2023-04-28T19:26:46.099Z,100083.00
2023-04-28T19:29:16.611Z,100076.82
2023-04-28T19:31:44.070Z,100081.13
2023-04-28T19:34:11.117Z,100075.36
2023-04-28T19:36:37.859Z,100081.61
2023-04-28T19:39:05.218Z,100079.52
2023-04-28T19:41:32.466Z,100085.08
2023-04-28T19:43:59.510Z,100083.15
2023-04-28T19:46:26.444Z,100084.27
2023-04-28T19:48:53.625Z,100083.45
2023-04-28T19:51:20.790Z,100079.27
2023-04-28T19:53:48.333Z,100085.65
2023-04-28T19:56:15.113Z,100085.64
2023-04-28T19:58:42.122Z,100094.34
2023-04-28T20:01:08.908Z,100091.19
2023-04-28T20:03:36.319Z,100090.36
2023-04-28T20:06:03.780Z,100089.35
2023-04-28T20:08:30.719Z,100093.51
2023-04-28T20:10:57.775Z,100092.36
2023-04-28T20:13:25.652Z,100095.29
2023-04-28T20:15:53.664Z,100098.54
2023-04-28T20:18:20.682Z,100093.77
2023-04-28T20:20:47.434Z,100093.58
2023-04-28T20:23:14.277Z,100093.20
2023-04-28T20:25:41.334Z,100095.17
2023-04-28T20:28:08.358Z,100093.23
2023-04-28T20:30:36.222Z,100096.80
2023-04-28T20:33:03.449Z,100102.85
2023-04-28T20:35:31.544Z,100100.59
2023-04-28T20:37:58.798Z,100099.98
2023-04-28T20:40:25.739Z,100102.16
2023-04-28T20:42:52.952Z,100105.02
2023-04-28T20:45:20.672Z,100100.28
2023-04-28T20:47:47.565Z,100096.74
2023-04-28T20:50:15.205Z,100100.52
2023-04-28T20:52:42.231Z,100103.23
2023-04-28T20:55:10.054Z,100104.33
2023-04-28T20:57:37.078Z,100111.05
2023-04-28T21:00:06.338Z,100113.19
2023-04-28T21:02:33.423Z,100113.89
2023-04-28T21:05:01.352Z,100107.37
2023-04-28T21:07:28.840Z,100112.91
2023-04-28T21:09:57.678Z,100108.02
2023-04-28T21:12:24.783Z,100109.84
2023-04-28T21:14:52.029Z,100112.55
2023-04-28T21:17:19.044Z,100113.48
2023-04-28T21:19:45.978Z,100110.48
2023-04-28T21:22:14.181Z,100105.23
2023-04-28T21:24:41.127Z,100102.14
2023-04-28T21:27:08.698Z,100105.23
2023-04-28T21:29:35.745Z,100110.29
2023-04-28T21:32:02.870Z,100111.28
2023-04-28T21:34:30.159Z,100108.91
2023-04-28T21:36:57.908Z,100109.34
2023-04-28T21:39:27.167Z,100107.26
2023-04-28T21:41:54.373Z,100105.72
2023-04-28T21:48:52.065Z,100103.43
2023-04-28T21:51:19.015Z,100098.63
2023-04-28T21:53:45.961Z,100100.77
2023-04-28T21:56:14.587Z,100099.12
2023-04-28T21:58:41.553Z,100096.30
2023-04-28T22:01:08.249Z,100097.40
2023-04-28T22:03:35.724Z,100099.04
2023-04-28T22:06:02.981Z,100097.50
2023-04-28T22:08:30.983Z,100096.27
2023-04-28T22:10:57.628Z,100098.06
2023-04-28T22:13:24.717Z,100093.98
2023-04-28T22:15:51.596Z,100094.35
2023-04-28T22:18:19.006Z,100089.61
2023-04-28T22:20:46.369Z,100089.82
2023-04-28T22:23:13.615Z,100090.54
2023-04-28T22:25:40.642Z,100090.73
2023-04-28T22:28:07.541Z,100093.19
2023-04-28T22:30:34.566Z,100097.28
2023-04-28T22:33:01.435Z,100094.83
2023-04-28T22:35:28.114Z,100097.65
2023-04-28T22:37:54.893Z,100094.65
2023-04-28T22:40:22.038Z,100093.45
2023-04-28T22:42:49.303Z,100090.29
2023-04-28T22:45:16.470Z,100083.79
2023-04-28T22:47:43.365Z,100081.34
2023-04-28T22:50:10.852Z,100080.81
2023-04-28T22:52:38.519Z,100077.83
2023-04-28T22:55:05.977Z,100078.38
2023-04-28T22:57:33.767Z,100076.77
2023-04-28T23:00:01.493Z,100072.71
2023-04-28T23:02:28.960Z,100074.14
2023-04-28T23:04:56.525Z,100075.02
2023-04-28T23:07:23.883Z,100070.77
2023-04-28T23:09:51.074Z,100071.65
2023-04-28T23:12:18.289Z,100072.52
2023-04-28T23:14:45.083Z,100071.45
2023-04-28T23:17:12.179Z,100066.86
2023-04-28T23:19:39.126Z,100065.09
2023-04-28T23:22:07.219Z,100063.67
2023-04-28T23:24:36.204Z,100063.80
2023-04-28T23:27:03.168Z,100066.27
2023-04-28T23:29:30.024Z,100064.48
2023-04-28T23:31:57.353Z,100064.49
2023-04-28T23:34:24.697Z,100065.00
2023-04-28T23:36:51.540Z,100068.17
2023-04-28T23:39:18.429Z,100069.98
2023-04-28T23:41:45.356Z,100069.86
2023-04-28T23:44:12.371Z,100066.56
2023-04-28T23:46:39.505Z,100070.87
2023-04-28T23:49:06.578Z,100071.13
2023-04-28T23:51:33.467Z,100068.55
2023-04-28T23:54:01.507Z,100071.23
2023-04-28T23:56:28.564Z,100073.17
2023-04-28T23:58:55.703Z,100072.97
